createdAt,value
2022-08-26T00:01:31.050Z,19.80
2022-08-26T00:03:58.732Z,20.95
2022-08-26T00:06:26.039Z,15.50
2022-08-26T00:08:52.769Z,15.77
2022-08-26T00:11:19.306Z,16.20
2022-08-26T00:13:56.532Z,17.33
2022-08-26T00:16:24.698Z,19.30
2022-08-26T00:18:51.519Z,21.93
2022-08-26T00:21:18.518Z,22.08
2022-08-26T00:23:45.863Z,24.63
2022-08-26T00:26:13.368Z,25.55
2022-08-26T00:28:41.224Z,25.70
2022-08-26T00:31:10.909Z,26.50
2022-08-26T00:33:38.879Z,24.20
2022-08-26T00:36:06.523Z,27.05
2022-08-26T00:38:33.926Z,31.80
2022-08-26T00:41:00.584Z,31.38
2022-08-26T00:43:27.306Z,34.27
2022-08-26T00:46:29.157Z,32.55
2022-08-26T00:49:04.172Z,33.80
2022-08-26T00:51:45.745Z,35.83
2022-08-26T00:54:13.243Z,29.60
2022-08-26T00:56:48.774Z,35.60
2022-08-26T00:59:17.658Z,32.03
2022-08-26T01:01:45.985Z,35.22
2022-08-26T01:04:17.723Z,34.65
2022-08-26T01:06:44.861Z,38.20
2022-08-26T01:09:12.026Z,40.53
2022-08-26T01:11:39.000Z,38.60
2022-08-26T01:14:07.375Z,34.58
2022-08-26T01:16:36.151Z,33.80
2022-08-26T01:19:15.820Z,39.28
2022-08-26T01:21:53.856Z,32.83
2022-08-26T01:24:20.607Z,32.28
2022-08-26T01:26:48.491Z,37.80
2022-08-26T01:29:20.102Z,38.28
2022-08-26T01:31:52.264Z,37.17
2022-08-26T01:34:23.958Z,36.20
2022-08-26T01:36:58.646Z,36.60
2022-08-26T01:39:25.368Z,39.03
2022-08-26T01:41:55.741Z,37.70
2022-08-26T01:44:26.923Z,38.55
2022-08-26T01:46:56.973Z,39.87
2022-08-26T01:49:26.072Z,42.75
2022-08-26T01:51:54.949Z,43.28
2022-08-26T01:54:23.486Z,40.50
2022-08-26T01:56:51.399Z,41.85
2022-08-26T01:59:20.551Z,38.80
2022-08-26T02:01:48.682Z,39.17
2022-08-26T02:04:15.308Z,44.30
2022-08-26T02:06:43.125Z,38.13
2022-08-26T02:09:10.593Z,42.63
2022-08-26T02:11:38.192Z,34.57
2022-08-26T02:14:13.257Z,39.40
2022-08-26T02:16:43.286Z,38.88
2022-08-26T02:19:17.019Z,41.50
2022-08-26T02:21:46.098Z,37.83
2022-08-26T02:24:27.854Z,36.87
2022-08-26T02:26:56.219Z,40.58
2022-08-26T02:29:29.284Z,38.30
2022-08-26T02:31:57.929Z,38.90
2022-08-26T02:34:31.239Z,37.25
2022-08-26T02:37:01.192Z,33.87
2022-08-26T02:39:29.621Z,42.33
2022-08-26T02:41:57.648Z,38.00
2022-08-26T02:44:24.188Z,42.13
2022-08-26T02:46:52.864Z,38.45
2022-08-26T02:49:21.372Z,38.90
2022-08-26T02:51:49.481Z,36.08
2022-08-26T02:54:18.166Z,48.10
2022-08-26T02:56:45.013Z,40.97
2022-08-26T02:59:15.389Z,38.08
2022-08-26T03:01:42.777Z,45.57
2022-08-26T03:04:11.752Z,43.13
2022-08-26T03:06:59.935Z,39.03
2022-08-26T03:09:27.933Z,39.67
2022-08-26T03:11:55.537Z,38.05
2022-08-26T03:14:23.924Z,36.60
2022-08-26T03:16:54.475Z,36.28
2022-08-26T03:19:23.421Z,42.08
2022-08-26T03:21:50.317Z,41.95
2022-08-26T03:24:19.355Z,38.90
2022-08-26T03:26:52.400Z,46.47
2022-08-26T03:29:37.954Z,41.08
2022-08-26T03:32:06.187Z,38.63
2022-08-26T03:34:33.284Z,40.38
2022-08-26T03:36:59.902Z,44.15
2022-08-26T03:39:28.125Z,46.93
2022-08-26T03:41:58.885Z,47.92
2022-08-26T03:44:25.704Z,48.33
2022-08-26T03:46:54.000Z,45.95
2022-08-26T03:49:20.615Z,40.17
2022-08-26T03:51:47.273Z,39.97
2022-08-26T03:54:14.256Z,43.30
2022-08-26T03:56:40.795Z,43.47
2022-08-26T03:59:07.802Z,41.08
2022-08-26T04:01:35.101Z,34.70
2022-08-26T04:04:01.774Z,38.67
2022-08-26T04:06:35.643Z,40.17
2022-08-26T04:09:06.506Z,39.15
2022-08-26T04:11:35.891Z,37.03
2022-08-26T04:14:09.540Z,36.92
2022-08-26T04:16:36.955Z,38.43
2022-08-26T04:19:04.134Z,37.35
2022-08-26T04:21:31.275Z,35.08
2022-08-26T04:23:58.331Z,39.15
2022-08-26T04:26:25.756Z,40.58
2022-08-26T04:28:55.355Z,35.67
2022-08-26T04:31:22.544Z,35.40
2022-08-26T04:33:50.307Z,32.38
2022-08-26T04:36:19.939Z,32.88
2022-08-26T04:38:47.573Z,30.90
2022-08-26T04:41:15.425Z,30.37
2022-08-26T04:43:43.469Z,32.10
2022-08-26T04:46:12.997Z,29.60
2022-08-26T04:48:41.354Z,29.33
2022-08-26T04:51:09.848Z,30.77
2022-08-26T04:53:37.421Z,32.97
2022-08-26T04:56:04.956Z,29.83
2022-08-26T04:58:32.330Z,29.55
2022-08-26T05:00:59.680Z,28.90
2022-08-26T05:03:30.332Z,29.05
2022-08-26T05:05:58.606Z,25.70
2022-08-26T05:08:25.758Z,26.63
2022-08-26T05:10:56.375Z,31.58
2022-08-26T05:13:26.305Z,25.83
2022-08-26T05:15:53.463Z,25.00
2022-08-26T05:18:23.071Z,26.40
2022-08-26T05:20:54.045Z,27.17
2022-08-26T05:23:23.099Z,28.48
2022-08-26T05:25:54.637Z,25.35
2022-08-26T05:28:23.738Z,25.42
2022-08-26T05:30:51.249Z,27.27
2022-08-26T05:33:19.351Z,24.42
2022-08-26T05:35:46.494Z,29.50
2022-08-26T05:38:17.435Z,24.55
2022-08-26T05:40:46.744Z,25.17
2022-08-26T05:43:14.112Z,28.50
2022-08-26T05:45:46.276Z,23.50
2022-08-26T05:48:14.656Z,25.95
2022-08-26T05:50:48.697Z,24.10
2022-08-26T05:53:19.061Z,31.00
2022-08-26T05:55:52.348Z,23.03
2022-08-26T05:58:21.655Z,22.70
2022-08-26T06:01:04.145Z,22.75
2022-08-26T06:03:33.338Z,21.48
2022-08-26T06:06:13.065Z,24.27
2022-08-26T06:08:41.312Z,23.77
2022-08-26T06:11:12.735Z,20.80
2022-08-26T06:13:46.007Z,23.05
2022-08-26T06:16:18.829Z,20.30
2022-08-26T06:18:47.055Z,19.67
2022-08-26T06:21:13.694Z,19.43
2022-08-26T06:23:59.077Z,26.45
2022-08-26T06:26:25.890Z,21.88
2022-08-26T06:28:52.533Z,20.92
2022-08-26T06:31:19.164Z,21.58
2022-08-26T06:33:45.865Z,21.00
2022-08-26T06:36:21.702Z,21.88
2022-08-26T06:38:50.735Z,19.27
2022-08-26T06:41:18.609Z,17.80
2022-08-26T06:43:47.139Z,22.58
2022-08-26T06:46:17.206Z,19.57
2022-08-26T06:48:44.646Z,19.20
2022-08-26T06:51:15.523Z,18.98
2022-08-26T06:53:46.780Z,20.92
2022-08-26T06:56:16.021Z,16.42
2022-08-26T06:58:43.565Z,18.33
2022-08-26T07:01:22.928Z,18.45
2022-08-26T07:03:51.302Z,22.48
2022-08-26T07:06:20.604Z,16.00
2022-08-26T07:08:48.918Z,15.23
2022-08-26T07:11:16.412Z,13.00
2022-08-26T07:13:43.432Z,15.55
2022-08-26T07:16:13.320Z,12.20
2022-08-26T07:18:42.434Z,14.00
2022-08-26T07:21:13.874Z,13.27
2022-08-26T07:23:41.357Z,17.03
2022-08-26T07:26:12.370Z,13.20
2022-08-26T07:28:39.500Z,13.88
2022-08-26T07:31:10.769Z,15.50
2022-08-26T07:33:39.561Z,17.25
2022-08-26T07:36:09.575Z,13.57
2022-08-26T07:38:38.726Z,13.02
2022-08-26T07:41:06.348Z,13.65
2022-08-26T07:43:36.697Z,14.85
2022-08-26T07:46:06.576Z,16.75
2022-08-26T07:48:34.001Z,12.03
2022-08-26T07:51:01.482Z,13.88
2022-08-26T07:53:28.273Z,14.43
2022-08-26T07:55:55.590Z,14.05
2022-08-26T07:58:22.599Z,13.18
2022-08-26T08:00:49.297Z,15.10
2022-08-26T08:03:16.132Z,13.75
2022-08-26T08:05:43.403Z,17.13
2022-08-26T08:08:27.660Z,17.48
2022-08-26T08:10:56.827Z,14.27
2022-08-26T08:13:24.422Z,13.73
2022-08-26T08:15:51.275Z,16.95
2022-08-26T08:18:20.446Z,17.55
2022-08-26T08:21:04.684Z,13.15
2022-08-26T08:23:35.568Z,15.70
2022-08-26T08:26:04.475Z,16.40
2022-08-26T08:28:31.134Z,15.18
2022-08-26T08:30:58.007Z,16.33
2022-08-26T08:33:24.924Z,15.23
2022-08-26T08:35:52.207Z,15.60
2022-08-26T08:38:18.774Z,16.53
2022-08-26T08:40:51.487Z,19.38
2022-08-26T08:43:44.844Z,13.13
2022-08-26T08:46:16.284Z,20.23
2022-08-26T08:48:48.060Z,24.83
2022-08-26T08:51:29.789Z,22.93
2022-08-26T08:53:56.795Z,21.15
2022-08-26T08:56:29.162Z,19.45
2022-08-26T08:59:14.235Z,17.92
2022-08-26T09:01:56.549Z,19.13
2022-08-26T09:04:44.871Z,29.83
2022-08-26T09:07:20.624Z,29.65
2022-08-26T09:09:52.549Z,24.70
2022-08-26T09:12:29.480Z,21.80
2022-08-26T09:15:23.946Z,36.75
2022-08-26T09:18:11.519Z,32.07
2022-08-26T09:20:54.267Z,35.45
2022-08-26T09:23:20.977Z,32.97
2022-08-26T09:25:50.397Z,48.60
2022-08-26T09:28:20.195Z,33.80
2022-08-26T09:30:59.238Z,30.37
2022-08-26T09:33:31.289Z,25.75
2022-08-26T09:36:22.714Z,22.77
2022-08-26T09:38:53.215Z,25.48
2022-08-26T09:41:25.093Z,30.98
2022-08-26T09:44:14.697Z,31.70
2022-08-26T09:46:54.396Z,32.17
2022-08-26T09:49:37.163Z,25.38
2022-08-26T09:52:08.085Z,19.02
2022-08-26T09:54:35.574Z,17.42
2022-08-26T09:57:16.288Z,28.33
2022-08-26T09:59:43.353Z,17.42
2022-08-26T10:02:22.770Z,16.35
2022-08-26T10:04:55.388Z,18.38
2022-08-26T10:07:41.544Z,16.98
2022-08-26T10:10:13.033Z,14.00
2022-08-26T10:12:49.804Z,16.65
2022-08-26T10:15:18.717Z,19.83
2022-08-26T10:17:56.132Z,27.48
2022-08-26T10:20:28.725Z,28.48
2022-08-26T10:23:05.544Z,29.20
2022-08-26T10:25:48.727Z,22.98
2022-08-26T10:28:33.564Z,20.83
2022-08-26T10:31:28.736Z,23.77
2022-08-26T10:34:00.241Z,26.92
2022-08-26T10:39:47.247Z,24.85
2022-08-26T10:42:30.101Z,20.58
2022-08-26T10:45:11.822Z,19.15
2022-08-26T10:47:50.123Z,17.25
2022-08-26T10:50:18.969Z,22.27
2022-08-26T10:52:51.306Z,19.52
2022-08-26T10:55:29.749Z,15.57
2022-08-26T10:58:09.217Z,14.55
2022-08-26T11:01:03.392Z,16.10
2022-08-26T11:03:44.307Z,16.67
2022-08-26T11:06:19.986Z,18.17
2022-08-26T11:08:52.684Z,16.02
2022-08-26T11:11:49.116Z,20.08
2022-08-26T11:14:29.264Z,17.20
2022-08-26T11:16:57.688Z,19.47
2022-08-26T11:19:59.653Z,15.35
2022-08-26T11:22:34.807Z,17.02
2022-08-26T11:25:06.847Z,17.98
2022-08-26T11:27:35.901Z,17.27
2022-08-26T11:30:05.734Z,20.97
2022-08-26T11:32:54.572Z,23.10
2022-08-26T11:35:21.449Z,17.42
2022-08-26T11:37:48.236Z,18.73
2022-08-26T11:40:25.042Z,15.60
2022-08-26T11:42:58.188Z,16.33
2022-08-26T11:45:30.879Z,16.73
2022-08-26T11:47:58.195Z,14.25
2022-08-26T11:50:28.660Z,13.68
2022-08-26T11:53:07.782Z,13.65
2022-08-26T11:55:36.671Z,13.47
2022-08-26T11:58:05.109Z,12.30
2022-08-26T12:01:05.314Z,11.77
2022-08-26T12:03:50.122Z,14.70
2022-08-26T12:06:28.527Z,12.23
2022-08-26T12:09:01.383Z,15.67
2022-08-26T12:11:35.037Z,11.35
2022-08-26T12:14:16.795Z,12.25
2022-08-26T12:16:43.689Z,7.50
2022-08-26T12:19:33.299Z,8.32
2022-08-26T12:22:24.299Z,8.60
2022-08-26T12:25:00.699Z,6.60
2022-08-26T12:27:30.321Z,10.43
2022-08-26T12:30:29.584Z,9.07
2022-08-26T12:33:22.925Z,12.57
2022-08-26T12:35:56.294Z,10.47
2022-08-26T12:38:25.358Z,9.48
2022-08-26T12:40:52.130Z,8.52
2022-08-26T12:43:44.363Z,7.40
2022-08-26T12:46:15.827Z,14.90
2022-08-26T12:48:44.705Z,9.60
2022-08-26T12:51:42.027Z,9.52
2022-08-26T12:54:14.219Z,9.73
2022-08-26T12:56:40.872Z,11.90
2022-08-26T12:59:26.679Z,9.88
2022-08-26T13:01:54.211Z,11.23
2022-08-26T13:04:42.478Z,8.45
2022-08-26T13:07:18.144Z,12.20
2022-08-26T13:09:44.726Z,8.13
2022-08-26T13:12:14.065Z,11.85
2022-08-26T13:14:40.871Z,10.87
2022-08-26T13:17:07.497Z,10.23
2022-08-26T13:19:34.038Z,8.80
2022-08-26T13:22:01.996Z,10.57
2022-08-26T13:24:45.525Z,6.90
2022-08-26T13:27:14.582Z,9.17
2022-08-26T13:29:41.711Z,7.75
2022-08-26T13:32:09.165Z,11.07
2022-08-26T13:34:37.358Z,8.13
2022-08-26T13:37:04.769Z,10.65
2022-08-26T13:39:31.450Z,11.43
2022-08-26T13:41:58.640Z,11.63
2022-08-26T13:44:25.165Z,7.25
2022-08-26T13:46:51.753Z,5.22
2022-08-26T13:49:18.366Z,9.00
2022-08-26T13:51:45.059Z,5.57
2022-08-26T13:54:11.834Z,10.48
2022-08-26T13:56:38.444Z,8.80
2022-08-26T13:59:06.424Z,12.10
2022-08-26T14:01:34.395Z,5.25
2022-08-26T14:04:02.915Z,8.53
2022-08-26T14:06:30.062Z,8.73
2022-08-26T14:08:56.777Z,7.25
2022-08-26T14:11:24.878Z,7.65
2022-08-26T14:13:51.906Z,11.80
2022-08-26T14:16:25.826Z,6.17
2022-08-26T14:18:53.404Z,9.55
2022-08-26T14:21:20.559Z,7.93
2022-08-26T14:23:47.207Z,7.88
2022-08-26T14:26:27.819Z,9.13
2022-08-26T14:28:57.635Z,12.33
2022-08-26T14:31:26.857Z,13.45
2022-08-26T14:33:53.636Z,18.05
2022-08-26T14:36:29.470Z,14.27
2022-08-26T14:39:00.231Z,12.65
2022-08-26T14:41:28.083Z,11.97
2022-08-26T14:44:00.057Z,11.32
2022-08-26T14:46:30.163Z,10.80
2022-08-26T14:49:01.739Z,10.40
2022-08-26T14:51:29.815Z,11.43
2022-08-26T14:54:14.778Z,7.43
2022-08-26T14:56:48.975Z,9.88
2022-08-26T14:59:20.718Z,8.77
2022-08-26T15:01:47.733Z,8.40
2022-08-26T15:04:15.571Z,9.75
2022-08-26T15:06:42.352Z,8.43
2022-08-26T15:09:09.371Z,9.15
2022-08-26T15:11:35.975Z,8.32
2022-08-26T15:14:02.821Z,8.40
2022-08-26T15:16:29.862Z,7.63
2022-08-26T15:18:56.898Z,8.73
2022-08-26T15:21:24.542Z,11.40
2022-08-26T15:23:52.794Z,7.35
2022-08-26T15:26:20.959Z,8.10
2022-08-26T15:28:47.742Z,8.35
2022-08-26T15:31:14.819Z,11.73
2022-08-26T15:33:41.438Z,9.18
2022-08-26T15:36:08.915Z,17.88
2022-08-26T15:38:40.121Z,9.48
2022-08-26T15:41:08.688Z,10.45
2022-08-26T15:43:39.006Z,9.97
2022-08-26T15:46:10.919Z,8.10
2022-08-26T15:48:38.450Z,7.13
2022-08-26T15:51:06.449Z,8.65
2022-08-26T15:53:35.348Z,6.93
2022-08-26T15:56:02.227Z,7.40
2022-08-26T15:58:29.162Z,10.10
2022-08-26T16:00:56.513Z,7.68
2022-08-26T16:03:23.630Z,7.57
2022-08-26T16:05:50.668Z,8.32
2022-08-26T16:08:17.432Z,7.97
2022-08-26T16:10:50.409Z,7.93
2022-08-26T16:13:19.834Z,6.30
2022-08-26T16:15:48.377Z,6.00
2022-08-26T16:18:16.203Z,6.47
2022-08-26T16:21:12.738Z,10.40
2022-08-26T16:23:39.058Z,9.48
2022-08-26T16:26:10.906Z,7.10
2022-08-26T16:28:38.409Z,9.20
2022-08-26T16:31:06.358Z,6.85
2022-08-26T16:33:33.259Z,5.73
2022-08-26T16:35:59.841Z,9.45
2022-08-26T16:38:26.536Z,6.80
2022-08-26T16:40:53.064Z,7.78
2022-08-26T16:43:19.633Z,5.88
2022-08-26T16:45:46.227Z,10.77
2022-08-26T16:48:16.065Z,9.48
2022-08-26T16:50:42.605Z,8.27
2022-08-26T16:55:44.815Z,8.38
2022-08-26T16:58:11.835Z,6.23
2022-08-26T17:00:38.894Z,6.97
2022-08-26T17:03:05.461Z,6.78
2022-08-26T17:05:32.183Z,13.18
2022-08-26T17:07:59.949Z,6.80
2022-08-26T17:10:28.520Z,7.13
2022-08-26T17:12:55.641Z,7.75
2022-08-26T17:15:23.809Z,8.13
2022-08-26T17:17:52.187Z,9.82
2022-08-26T17:20:20.585Z,7.35
2022-08-26T17:22:49.609Z,12.67
2022-08-26T17:25:29.112Z,6.18
2022-08-26T17:30:25.746Z,6.38
2022-08-26T17:32:52.877Z,8.68
2022-08-26T17:35:20.310Z,6.07
2022-08-26T17:37:47.196Z,11.32
2022-08-26T17:40:17.693Z,11.05
2022-08-26T17:42:44.882Z,7.93
2022-08-26T17:45:12.385Z,16.08
2022-08-26T17:47:41.129Z,10.70
2022-08-26T17:50:10.644Z,6.65
2022-08-26T17:52:38.332Z,7.78
2022-08-26T17:55:09.708Z,7.70
2022-08-26T17:57:40.940Z,7.00
2022-08-26T18:00:14.705Z,8.20
2022-08-26T18:02:42.072Z,9.77
2022-08-26T18:05:11.541Z,7.10
2022-08-26T18:07:43.709Z,9.07
2022-08-26T18:10:13.346Z,8.57
2022-08-26T18:12:41.785Z,10.43
2022-08-26T18:15:10.191Z,7.15
2022-08-26T18:17:39.050Z,7.47
2022-08-26T18:20:18.752Z,5.00
2022-08-26T18:22:46.764Z,5.13
2022-08-26T18:25:14.664Z,4.20
2022-08-26T18:27:41.302Z,5.00
2022-08-26T18:30:16.395Z,5.75
2022-08-26T18:32:43.600Z,8.93
2022-08-26T18:35:11.175Z,5.10
2022-08-26T18:37:37.873Z,8.30
2022-08-26T18:40:06.780Z,8.65
2022-08-26T18:42:33.634Z,6.55
2022-08-26T18:45:00.308Z,6.30
2022-08-26T18:47:26.905Z,10.57
2022-08-26T18:49:53.649Z,6.57
2022-08-26T18:52:20.242Z,4.70
2022-08-26T18:54:46.801Z,7.20
2022-08-26T18:57:13.432Z,5.35
2022-08-26T18:59:41.019Z,5.53
2022-08-26T19:02:09.595Z,4.57
2022-08-26T19:04:38.543Z,6.78
2022-08-26T19:07:06.171Z,4.03
2022-08-26T19:09:33.745Z,5.50
2022-08-26T19:12:01.446Z,5.35
2022-08-26T19:14:28.719Z,4.67
2022-08-26T19:16:55.339Z,7.05
2022-08-26T19:19:25.799Z,5.38
2022-08-26T19:21:53.374Z,8.10
2022-08-26T19:24:20.556Z,5.63
2022-08-26T19:26:50.417Z,6.53
2022-08-26T19:29:27.191Z,5.82
2022-08-26T19:31:53.933Z,7.38
2022-08-26T19:34:20.854Z,5.85
2022-08-26T19:36:48.200Z,6.80
2022-08-26T19:39:14.778Z,5.07
2022-08-26T19:41:41.523Z,5.75
2022-08-26T19:44:33.798Z,12.88
2022-08-26T19:47:00.815Z,10.68
2022-08-26T19:49:27.391Z,7.28
2022-08-26T19:51:54.184Z,6.50
2022-08-26T19:54:22.690Z,7.65
2022-08-26T19:56:49.832Z,6.32
2022-08-26T19:59:17.493Z,7.10
2022-08-26T20:01:44.268Z,8.50
2022-08-26T20:04:10.856Z,8.03
2022-08-26T20:06:37.485Z,9.00
2022-08-26T20:09:04.154Z,8.43
2022-08-26T20:11:31.111Z,7.95
2022-08-26T20:13:57.799Z,6.10
2022-08-26T20:16:24.416Z,10.40
2022-08-26T20:19:09.506Z,6.10
2022-08-26T20:21:38.973Z,6.88
2022-08-26T20:24:09.118Z,4.13
2022-08-26T20:26:38.119Z,3.90
2022-08-26T20:29:05.360Z,5.40
2022-08-26T20:31:32.115Z,4.43
2022-08-26T20:33:58.839Z,6.10
2022-08-26T20:36:27.243Z,4.55
2022-08-26T20:38:54.948Z,4.35
2022-08-26T20:41:24.090Z,4.93
2022-08-26T20:43:50.865Z,6.03
2022-08-26T20:46:20.283Z,6.95
2022-08-26T20:48:49.988Z,4.13
2022-08-26T20:51:17.892Z,8.38
2022-08-26T20:53:45.206Z,2.87
2022-08-26T20:56:14.531Z,6.68
2022-08-26T20:58:42.011Z,5.43
2022-08-26T21:01:17.770Z,5.18
2022-08-26T21:03:44.582Z,5.97
2022-08-26T21:06:11.371Z,6.30
2022-08-26T21:08:42.124Z,6.63
2022-08-26T21:11:10.272Z,6.00
2022-08-26T21:13:54.500Z,3.67
2022-08-26T21:16:25.092Z,5.07
2022-08-26T21:18:51.740Z,7.53
2022-08-26T21:21:18.788Z,7.60
2022-08-26T21:23:51.555Z,3.63
2022-08-26T21:26:18.203Z,5.40
2022-08-26T21:28:44.865Z,3.83
2022-08-26T21:31:14.849Z,5.17
2022-08-26T21:33:42.096Z,4.43
2022-08-26T21:36:10.712Z,6.20
2022-08-26T21:38:37.446Z,3.05
2022-08-26T21:41:10.228Z,2.75
2022-08-26T21:43:38.354Z,4.93
2022-08-26T21:46:11.580Z,6.63
2022-08-26T21:48:40.287Z,6.07
2022-08-26T21:51:07.331Z,6.45
2022-08-26T21:53:34.292Z,4.78
2022-08-26T21:56:04.853Z,5.47
2022-08-26T21:58:31.616Z,4.45
2022-08-26T22:00:58.298Z,4.43
2022-08-26T22:03:25.346Z,4.38
2022-08-26T22:05:51.897Z,6.28
2022-08-26T22:08:22.905Z,6.80
2022-08-26T22:10:55.043Z,7.53
2022-08-26T22:13:24.638Z,6.72
2022-08-26T22:15:51.710Z,6.07
2022-08-26T22:18:21.113Z,5.82
2022-08-26T22:20:48.106Z,3.30
2022-08-26T22:23:14.635Z,5.07
2022-08-26T22:25:41.327Z,6.38
2022-08-26T22:28:07.930Z,4.22
2022-08-26T22:30:35.386Z,7.07
2022-08-26T22:33:04.071Z,5.47
2022-08-26T22:35:31.090Z,3.95
2022-08-26T22:37:58.637Z,3.35
2022-08-26T22:40:25.295Z,6.53
2022-08-26T22:42:57.854Z,4.97
2022-08-26T22:45:28.344Z,7.70
2022-08-26T22:47:54.887Z,8.00
2022-08-26T22:50:21.758Z,12.57
2022-08-26T22:52:48.277Z,10.55
2022-08-26T22:55:14.892Z,7.55
2022-08-26T22:57:42.052Z,10.30
2022-08-26T23:00:12.279Z,10.90
2022-08-26T23:02:42.073Z,14.90
2022-08-26T23:05:10.206Z,15.48
2022-08-26T23:07:37.214Z,15.82
2022-08-26T23:10:07.163Z,18.37
2022-08-26T23:12:37.286Z,14.55
2022-08-26T23:15:06.367Z,17.52
2022-08-26T23:17:33.929Z,17.60
2022-08-26T23:20:01.896Z,18.25
2022-08-26T23:22:28.580Z,17.40
2022-08-26T23:24:55.121Z,21.70
2022-08-26T23:27:22.180Z,19.88
2022-08-26T23:29:48.760Z,18.27
2022-08-26T23:32:15.386Z,16.30
2022-08-26T23:34:58.373Z,20.33
2022-08-26T23:37:35.866Z,17.48
2022-08-26T23:40:07.082Z,20.80
2022-08-26T23:42:36.129Z,22.02
2022-08-26T23:45:04.835Z,24.13
2022-08-26T23:47:31.448Z,27.33
2022-08-26T23:49:58.275Z,27.05
2022-08-26T23:52:43.358Z,32.58
2022-08-26T23:55:11.704Z,29.90
2022-08-26T23:57:38.298Z,29.42
